createdAt,value
2018-06-29T00:00:27.654Z,1005.58
2018-06-29T00:01:27.684Z,1005.58
2018-06-29T00:02:27.645Z,1005.58
2018-06-29T00:03:27.769Z,1005.56
2018-06-29T00:04:27.720Z,1005.55
2018-06-29T00:05:27.722Z,1005.57
2018-06-29T00:06:27.749Z,1005.54
2018-06-29T00:07:27.797Z,1005.59
2018-06-29T00:08:27.793Z,1005.58
2018-06-29T00:09:27.806Z,1005.58
2018-06-29T00:10:27.944Z,1005.58
2018-06-29T00:11:27.877Z,1005.57
2018-06-29T00:12:27.924Z,1005.59
2018-06-29T00:13:27.911Z,1005.55
2018-06-29T00:14:27.936Z,1005.56
2018-06-29T00:15:27.976Z,1005.61
2018-06-29T00:16:27.989Z,1005.6
2018-06-29T00:17:28.021Z,1005.57
2018-06-29T00:18:27.999Z,1005.58
2018-06-29T00:19:28.024Z,1005.6
2018-06-29T00:20:28.048Z,1005.55
2018-06-29T00:21:28.075Z,1005.59
2018-06-29T00:22:28.097Z,1005.59
2018-06-29T00:23:28.121Z,1005.63
2018-06-29T00:24:28.149Z,1005.6
2018-06-29T00:25:28.267Z,1005.64
2018-06-29T00:26:28.195Z,1005.66
2018-06-29T00:27:28.218Z,1005.63
2018-06-29T00:28:28.243Z,1005.64
2018-06-29T00:29:28.268Z,1005.65
2018-06-29T00:30:28.293Z,1005.64
2018-06-29T00:31:28.316Z,1005.65
2018-06-29T00:32:28.341Z,1005.68
2018-06-29T00:33:28.367Z,1005.66
2018-06-29T00:34:28.390Z,1005.65
2018-06-29T00:35:28.416Z,1005.68
2018-06-29T00:36:28.468Z,1005.72
2018-06-29T00:37:28.470Z,1005.7
2018-06-29T00:38:28.488Z,1005.7
2018-06-29T00:39:28.513Z,1005.69
2018-06-29T00:40:28.540Z,1005.68
2018-06-29T00:41:28.562Z,1005.71
2018-06-29T00:42:28.591Z,1005.73
2018-06-29T00:43:28.612Z,1005.73
2018-06-29T00:44:28.637Z,1005.74
2018-06-29T00:45:28.660Z,1005.78
2018-06-29T00:46:28.685Z,1005.79
2018-06-29T00:47:28.711Z,1005.8
2018-06-29T00:48:28.735Z,1005.8
2018-06-29T00:49:28.758Z,1005.81
2018-06-29T00:50:28.784Z,1005.84
2018-06-29T00:51:28.809Z,1005.83
2018-06-29T00:52:28.832Z,1005.86
2018-06-29T00:53:28.856Z,1005.85
2018-06-29T00:54:28.881Z,1005.83
2018-06-29T00:55:28.915Z,1005.78
2018-06-29T00:56:28.932Z,1005.76
2018-06-29T00:57:28.954Z,1005.77
2018-06-29T00:58:28.979Z,1005.76
2018-06-29T00:59:29.003Z,1005.75
2018-06-29T01:00:29.027Z,1005.76
2018-06-29T01:01:29.050Z,1005.77
2018-06-29T01:02:29.076Z,1005.77
2018-06-29T01:03:29.100Z,1005.78
2018-06-29T01:04:29.125Z,1005.8
2018-06-29T01:05:29.158Z,1005.77
2018-06-29T01:06:29.175Z,1005.79
2018-06-29T01:07:29.198Z,1005.75
2018-06-29T01:08:29.223Z,1005.73
2018-06-29T01:09:29.248Z,1005.75
2018-06-29T01:10:29.276Z,1005.76
2018-06-29T01:11:29.295Z,1005.78
2018-06-29T01:12:29.319Z,1005.76
2018-06-29T01:13:29.347Z,1005.75
2018-06-29T01:14:29.367Z,1005.77
2018-06-29T01:15:29.394Z,1005.75
2018-06-29T01:16:29.418Z,1005.77
2018-06-29T01:17:29.442Z,1005.75
2018-06-29T01:18:29.465Z,1005.77
2018-06-29T01:19:29.493Z,1005.71
2018-06-29T01:20:29.515Z,1005.76
2018-06-29T01:21:29.540Z,1005.7
2018-06-29T01:22:29.563Z,1005.73
2018-06-29T01:23:29.589Z,1005.7
2018-06-29T01:24:29.613Z,1005.7
2018-06-29T01:25:29.636Z,1005.7
2018-06-29T01:26:29.665Z,1005.69
2018-06-29T01:27:29.686Z,1005.67
2018-06-29T01:28:29.711Z,1005.66
2018-06-29T01:29:29.739Z,1005.65
2018-06-29T01:30:29.761Z,1005.65
2018-06-29T01:31:29.790Z,1005.64
2018-06-29T01:32:29.808Z,1005.63
2018-06-29T01:33:29.831Z,1005.63
2018-06-29T01:34:29.859Z,1005.61
2018-06-29T01:35:29.881Z,1005.61
2018-06-29T01:36:29.906Z,1005.6
2018-06-29T01:37:29.929Z,1005.63
2018-06-29T01:38:29.954Z,1005.64
2018-06-29T01:39:29.983Z,1005.65
2018-06-29T01:40:30.000Z,1005.63
2018-06-29T01:41:30.092Z,1005.63
2018-06-29T01:42:30.051Z,1005.61
2018-06-29T01:43:30.074Z,1005.59
2018-06-29T01:44:30.099Z,1005.61
2018-06-29T01:45:30.123Z,1005.63
2018-06-29T01:46:30.148Z,1005.59
2018-06-29T01:47:30.172Z,1005.57
2018-06-29T01:48:30.196Z,1005.53
2018-06-29T01:49:30.220Z,1005.56
2018-06-29T01:50:30.249Z,1005.54
2018-06-29T01:51:30.268Z,1005.56
2018-06-29T01:52:30.340Z,1005.55
2018-06-29T01:53:30.317Z,1005.57
2018-06-29T01:54:30.340Z,1005.54
2018-06-29T01:55:30.366Z,1005.5
2018-06-29T01:56:30.391Z,1005.52
2018-06-29T01:57:30.414Z,1005.52
2018-06-29T01:58:30.437Z,1005.54
2018-06-29T01:59:30.463Z,1005.55
2018-06-29T02:00:30.487Z,1005.51
2018-06-29T02:01:30.510Z,1005.52
2018-06-29T02:02:30.537Z,1005.54
2018-06-29T02:03:30.557Z,1005.53
2018-06-29T02:04:30.583Z,1005.47
2018-06-29T02:05:30.605Z,1005.45
2018-06-29T02:06:30.633Z,1005.48
2018-06-29T02:07:30.656Z,1005.46
2018-06-29T02:08:30.679Z,1005.43
2018-06-29T02:09:30.703Z,1005.44
2018-06-29T02:10:30.727Z,1005.42
2018-06-29T02:11:30.751Z,1005.42
2018-06-29T02:12:30.782Z,1005.4
2018-06-29T02:13:30.798Z,1005.42
2018-06-29T02:14:30.824Z,1005.39
2018-06-29T02:15:30.848Z,1005.37
2018-06-29T02:16:30.873Z,1005.36
2018-06-29T02:17:30.896Z,1005.33
2018-06-29T02:18:30.920Z,1005.31
2018-06-29T02:19:30.944Z,1005.28
2018-06-29T02:20:30.967Z,1005.29
2018-06-29T02:21:30.991Z,1005.25
2018-06-29T02:22:31.015Z,1005.25
2018-06-29T02:23:31.042Z,1005.27
2018-06-29T02:24:31.063Z,1005.25
2018-06-29T02:25:31.089Z,1005.19
2018-06-29T02:26:31.117Z,1005.21
2018-06-29T02:27:31.171Z,1005.18
2018-06-29T02:28:31.160Z,1005.18
2018-06-29T02:29:31.185Z,1005.2
2018-06-29T02:30:31.305Z,1005.17
2018-06-29T02:31:31.235Z,1005.13
2018-06-29T02:32:31.257Z,1005.12
2018-06-29T02:33:31.282Z,1005.14
2018-06-29T02:34:31.306Z,1005.17
2018-06-29T02:35:31.329Z,1005.11
2018-06-29T02:36:31.354Z,1005.14
2018-06-29T02:37:31.378Z,1005.09
2018-06-29T02:38:31.401Z,1005.1
2018-06-29T02:39:31.426Z,1005.13
2018-06-29T02:40:31.448Z,1005.15
2018-06-29T02:41:31.472Z,1005.12
2018-06-29T02:42:31.497Z,1005.14
2018-06-29T02:43:31.523Z,1005.18
2018-06-29T02:44:31.561Z,1005.17
2018-06-29T02:45:31.569Z,1005.16
2018-06-29T02:46:31.594Z,1005.19
2018-06-29T02:47:31.617Z,1005.19
2018-06-29T02:48:31.641Z,1005.22
2018-06-29T02:49:31.664Z,1005.26
2018-06-29T02:50:31.689Z,1005.22
2018-06-29T02:51:31.713Z,1005.27
2018-06-29T02:52:31.738Z,1005.22
2018-06-29T02:53:31.762Z,1005.24
2018-06-29T02:54:31.786Z,1005.17
2018-06-29T02:55:31.810Z,1005.2
2018-06-29T02:56:31.835Z,1005.17
2018-06-29T02:57:31.859Z,1005.19
2018-06-29T02:58:31.881Z,1005.18
2018-06-29T02:59:31.905Z,1005.17
2018-06-29T03:00:31.932Z,1005.2
2018-06-29T03:01:31.956Z,1005.25
2018-06-29T03:02:31.977Z,1005.24
2018-06-29T03:03:32.002Z,1005.24
2018-06-29T03:04:32.024Z,1005.23
2018-06-29T03:05:32.048Z,1005.21
2018-06-29T03:06:32.075Z,1005.19
2018-06-29T03:07:32.100Z,1005.19
2018-06-29T03:08:32.127Z,1005.18
2018-06-29T03:09:32.145Z,1005.16
2018-06-29T03:10:32.168Z,1005.18
2018-06-29T03:11:32.192Z,1005.14
2018-06-29T03:12:32.216Z,1005.15
2018-06-29T03:13:32.239Z,1005.16
2018-06-29T03:14:32.264Z,1005.18
2018-06-29T03:15:32.287Z,1005.2
2018-06-29T03:16:32.311Z,1005.2
2018-06-29T03:17:32.337Z,1005.2
2018-06-29T03:18:32.357Z,1005.22
2018-06-29T03:19:32.385Z,1005.24
2018-06-29T03:20:32.407Z,1005.25
2018-06-29T03:21:32.434Z,1005.29
2018-06-29T03:22:32.455Z,1005.28
2018-06-29T03:23:32.510Z,1005.28
2018-06-29T03:24:32.505Z,1005.27
2018-06-29T03:25:32.532Z,1005.24
2018-06-29T03:26:32.550Z,1005.24
2018-06-29T03:27:32.576Z,1005.26
2018-06-29T03:28:32.598Z,1005.25
2018-06-29T03:29:32.626Z,1005.21
2018-06-29T03:30:32.645Z,1005.23
2018-06-29T03:31:32.668Z,1005.28
2018-06-29T03:32:32.692Z,1005.25
2018-06-29T03:33:32.719Z,1005.25
2018-06-29T03:34:32.738Z,1005.27
2018-06-29T03:35:32.763Z,1005.24
2018-06-29T03:36:32.788Z,1005.26
2018-06-29T03:37:32.809Z,1005.24
2018-06-29T03:38:32.837Z,1005.28
2018-06-29T03:39:32.857Z,1005.26
2018-06-29T03:40:32.967Z,1005.27
2018-06-29T03:41:32.909Z,1005.25
2018-06-29T03:42:32.928Z,1005.27
2018-06-29T03:43:32.953Z,1005.24
2018-06-29T03:44:33.057Z,1005.25
2018-06-29T03:45:32.999Z,1005.23
2018-06-29T03:46:33.025Z,1005.24
2018-06-29T03:47:33.098Z,1005.23
2018-06-29T03:48:33.072Z,1005.29
2018-06-29T03:49:33.205Z,1005.28
2018-06-29T03:50:33.119Z,1005.25
2018-06-29T03:51:33.143Z,1005.24
2018-06-29T03:52:33.166Z,1005.25
2018-06-29T03:53:33.190Z,1005.21
2018-06-29T03:54:33.214Z,1005.2
2018-06-29T03:55:33.238Z,1005.19
2018-06-29T03:56:33.264Z,1005.22
2018-06-29T03:57:33.284Z,1005.21
2018-06-29T03:58:33.308Z,1005.17
2018-06-29T03:59:33.333Z,1005.18
2018-06-29T04:00:33.356Z,1005.2
2018-06-29T04:01:33.380Z,1005.18
2018-06-29T04:02:33.403Z,1005.18
2018-06-29T04:03:33.427Z,1005.15
2018-06-29T04:04:33.452Z,1005.16
2018-06-29T04:05:33.474Z,1005.19
2018-06-29T04:06:33.498Z,1005.21
2018-06-29T04:07:33.521Z,1005.19
2018-06-29T04:08:33.545Z,1005.19
2018-06-29T04:09:33.569Z,1005.25
2018-06-29T04:10:33.593Z,1005.23
2018-06-29T04:11:33.615Z,1005.21
2018-06-29T04:12:33.640Z,1005.28
2018-06-29T04:13:33.663Z,1005.31
2018-06-29T04:14:33.688Z,1005.28
2018-06-29T04:15:33.710Z,1005.31
2018-06-29T04:16:33.736Z,1005.23
2018-06-29T04:17:33.758Z,1005.26
2018-06-29T04:18:33.783Z,1005.26
2018-06-29T04:19:33.808Z,1005.25
2018-06-29T04:20:33.833Z,1005.24
2018-06-29T04:21:33.851Z,1005.22
2018-06-29T04:22:33.879Z,1005.2
2018-06-29T04:23:33.898Z,1005.2
2018-06-29T04:24:33.923Z,1005.2
2018-06-29T04:25:33.947Z,1005.24
2018-06-29T04:26:34.015Z,1005.2
2018-06-29T04:27:33.995Z,1005.21
2018-06-29T04:28:34.017Z,1005.19
2018-06-29T04:29:34.042Z,1005.21
2018-06-29T04:30:34.065Z,1005.18
2018-06-29T04:31:34.089Z,1005.2
2018-06-29T04:32:34.113Z,1005.2
2018-06-29T04:33:34.137Z,1005.2
2018-06-29T04:34:34.162Z,1005.18
2018-06-29T04:35:34.185Z,1005.2
2018-06-29T04:36:34.209Z,1005.23
2018-06-29T04:37:34.232Z,1005.21
2018-06-29T04:38:34.254Z,1005.19
2018-06-29T04:39:34.278Z,1005.25
2018-06-29T04:40:34.301Z,1005.21
2018-06-29T04:41:34.327Z,1005.23
2018-06-29T04:42:34.348Z,1005.21
2018-06-29T04:43:34.373Z,1005.19
2018-06-29T04:44:34.404Z,1005.19
2018-06-29T04:45:34.421Z,1005.14
2018-06-29T04:46:34.448Z,1005.12
2018-06-29T04:47:34.471Z,1005.13
2018-06-29T04:48:34.531Z,1005.1
2018-06-29T04:49:34.515Z,1005.08
2018-06-29T04:50:34.539Z,1005.08
2018-06-29T04:51:34.562Z,1005.11
2018-06-29T04:52:34.585Z,1005.08
2018-06-29T04:53:34.608Z,1005.08
2018-06-29T04:54:34.632Z,1005.07
2018-06-29T04:55:34.655Z,1005.11
2018-06-29T04:56:34.679Z,1005.16
2018-06-29T04:57:34.704Z,1005.17
2018-06-29T04:58:34.727Z,1005.11
2018-06-29T04:59:34.750Z,1005.1
2018-06-29T05:00:34.779Z,1005.07
2018-06-29T05:01:34.798Z,1005.1
2018-06-29T05:02:34.820Z,1005.07
2018-06-29T05:03:34.850Z,1005.1
2018-06-29T05:04:34.869Z,1005.09
2018-06-29T05:05:34.891Z,1005.09
2018-06-29T05:06:34.920Z,1005.11
2018-06-29T05:07:34.938Z,1005.12
2018-06-29T05:08:34.961Z,1005.1
2018-06-29T05:09:34.986Z,1005.13
2018-06-29T05:10:35.010Z,1005.11
2018-06-29T05:11:35.035Z,1005.12
2018-06-29T05:12:35.061Z,1005.15
2018-06-29T05:13:35.084Z,1005.12
2018-06-29T05:14:35.113Z,1005.16
2018-06-29T05:15:35.140Z,1005.22
2018-06-29T05:16:35.150Z,1005.24
2018-06-29T05:17:35.174Z,1005.25
2018-06-29T05:18:35.199Z,1005.23
2018-06-29T05:19:35.219Z,1005.24
2018-06-29T05:20:35.244Z,1005.26
2018-06-29T05:21:35.267Z,1005.27
2018-06-29T05:22:35.292Z,1005.3
2018-06-29T05:23:35.314Z,1005.3
2018-06-29T05:24:35.340Z,1005.34
2018-06-29T05:25:35.362Z,1005.34
2018-06-29T05:26:35.493Z,1005.37
2018-06-29T05:27:35.410Z,1005.37
2018-06-29T05:28:35.480Z,1005.37
2018-06-29T05:29:35.458Z,1005.39
2018-06-29T05:30:35.485Z,1005.39
2018-06-29T05:31:35.502Z,1005.37
2018-06-29T05:32:35.526Z,1005.42
2018-06-29T05:33:35.549Z,1005.34
2018-06-29T05:34:35.572Z,1005.37
2018-06-29T05:35:35.597Z,1005.34
2018-06-29T05:36:35.622Z,1005.31
2018-06-29T05:37:35.643Z,1005.37
2018-06-29T05:38:35.671Z,1005.37
2018-06-29T05:39:35.692Z,1005.35
2018-06-29T05:40:35.716Z,1005.32
2018-06-29T05:41:35.946Z,1005.31
2018-06-29T05:42:35.773Z,1005.37
2018-06-29T05:43:35.786Z,1005.34
2018-06-29T05:44:35.814Z,1005.32
2018-06-29T05:45:35.831Z,1005.29
2018-06-29T05:46:35.857Z,1005.32
2018-06-29T05:47:35.879Z,1005.31
2018-06-29T05:48:35.900Z,1005.37
2018-06-29T05:49:35.925Z,1005.35
2018-06-29T05:50:35.948Z,1005.36
2018-06-29T05:51:35.972Z,1005.34
2018-06-29T05:52:35.995Z,1005.33
2018-06-29T05:53:36.020Z,1005.4
2018-06-29T05:54:36.042Z,1005.4
2018-06-29T05:55:36.067Z,1005.43
2018-06-29T05:56:36.089Z,1005.46
2018-06-29T05:57:36.168Z,1005.49
2018-06-29T05:58:36.136Z,1005.48
2018-06-29T05:59:36.158Z,1005.51
2018-06-29T06:00:36.182Z,1005.54
2018-06-29T06:01:36.206Z,1005.52
2018-06-29T06:02:36.230Z,1005.55
2018-06-29T06:03:36.253Z,1005.52
2018-06-29T06:04:36.302Z,1005.58
2018-06-29T06:05:36.299Z,1005.57
2018-06-29T06:06:36.326Z,1005.6
2018-06-29T06:07:36.402Z,1005.59
2018-06-29T06:08:36.385Z,1005.58
2018-06-29T06:09:36.397Z,1005.59
2018-06-29T06:10:36.417Z,1005.59
2018-06-29T06:11:36.439Z,1005.58
2018-06-29T06:12:36.485Z,1005.58
2018-06-29T06:13:36.502Z,1005.59
2018-06-29T06:14:36.523Z,1005.6
2018-06-29T06:15:36.561Z,1005.6
2018-06-29T06:16:36.568Z,1005.62
2018-06-29T06:17:36.593Z,1005.54
2018-06-29T06:18:36.616Z,1005.58
2018-06-29T06:19:36.641Z,1005.59
2018-06-29T06:20:36.677Z,1005.58
2018-06-29T06:21:36.691Z,1005.56
2018-06-29T06:22:36.712Z,1005.54
2018-06-29T06:23:36.772Z,1005.6
2018-06-29T06:24:36.757Z,1005.58
2018-06-29T06:25:36.777Z,1005.61
2018-06-29T06:26:36.854Z,1005.63
2018-06-29T06:27:36.854Z,1005.61
2018-06-29T06:28:36.873Z,1005.61
2018-06-29T06:29:36.861Z,1005.56
2018-06-29T06:30:36.889Z,1005.58
2018-06-29T06:31:36.957Z,1005.46
2018-06-29T06:32:36.942Z,1005.49
2018-06-29T06:33:36.959Z,1005.47
2018-06-29T06:34:36.980Z,1005.5
2018-06-29T06:35:37.004Z,1005.53
2018-06-29T06:36:37.029Z,1005.55
2018-06-29T06:37:37.050Z,1005.56
2018-06-29T06:38:37.076Z,1005.62
2018-06-29T06:39:37.097Z,1005.6
2018-06-29T06:40:37.120Z,1005.63
2018-06-29T06:41:37.402Z,1005.65
2018-06-29T06:42:37.181Z,1005.63
2018-06-29T06:43:37.191Z,1005.62
2018-06-29T06:44:37.214Z,1005.67
2018-06-29T06:45:37.238Z,1005.63
2018-06-29T06:46:37.262Z,1005.7
2018-06-29T06:47:37.283Z,1005.65
2018-06-29T06:48:37.308Z,1005.62
2018-06-29T06:49:37.334Z,1005.65
2018-06-29T06:50:37.353Z,1005.64
2018-06-29T06:51:37.377Z,1005.67
2018-06-29T06:52:37.401Z,1005.67
2018-06-29T06:53:37.440Z,1005.64
2018-06-29T06:54:37.449Z,1005.64
2018-06-29T06:55:37.471Z,1005.64
2018-06-29T06:56:37.496Z,1005.64
2018-06-29T06:57:37.520Z,1005.64
2018-06-29T06:58:37.548Z,1005.63
2018-06-29T06:59:37.565Z,1005.67
2018-06-29T07:00:37.589Z,1005.65
2018-06-29T07:01:37.613Z,1005.7
2018-06-29T07:02:37.636Z,1005.69
2018-06-29T07:03:37.658Z,1005.65
2018-06-29T07:04:37.682Z,1005.68
2018-06-29T07:05:37.705Z,1005.68
2018-06-29T07:06:37.736Z,1005.67
2018-06-29T07:07:37.754Z,1005.68
2018-06-29T07:08:37.777Z,1005.64
2018-06-29T07:09:37.799Z,1005.63
2018-06-29T07:10:37.824Z,1005.67
2018-06-29T07:11:37.847Z,1005.64
2018-06-29T07:12:37.930Z,1005.71
2018-06-29T07:13:37.894Z,1005.66
2018-06-29T07:14:37.918Z,1005.62
2018-06-29T07:15:37.941Z,1005.58
2018-06-29T07:16:37.965Z,1005.63
2018-06-29T07:17:37.989Z,1005.62
2018-06-29T07:18:38.012Z,1005.6
2018-06-29T07:19:38.040Z,1005.6
2018-06-29T07:20:38.059Z,1005.57
2018-06-29T07:21:38.083Z,1005.57
2018-06-29T07:22:38.109Z,1005.54
2018-06-29T07:23:38.129Z,1005.54
2018-06-29T07:24:38.152Z,1005.49
2018-06-29T07:25:38.177Z,1005.52
2018-06-29T07:26:38.256Z,1005.49
2018-06-29T07:27:38.224Z,1005.47
2018-06-29T07:28:38.249Z,1005.43
2018-06-29T07:29:38.272Z,1005.46
2018-06-29T07:30:38.295Z,1005.41
2018-06-29T07:31:38.319Z,1005.39
2018-06-29T07:32:38.343Z,1005.38
2018-06-29T07:33:38.366Z,1005.36
2018-06-29T07:34:38.388Z,1005.37
2018-06-29T07:35:38.412Z,1005.37
2018-06-29T07:36:38.440Z,1005.37
2018-06-29T07:37:38.469Z,1005.37
2018-06-29T07:38:38.521Z,1005.38
2018-06-29T07:39:38.508Z,1005.33
2018-06-29T07:40:38.533Z,1005.31
2018-06-29T07:41:38.557Z,1005.3
2018-06-29T07:42:38.581Z,1005.36
2018-06-29T07:43:38.605Z,1005.34
2018-06-29T07:44:38.630Z,1005.31
2018-06-29T07:45:38.652Z,1005.32
2018-06-29T07:46:38.734Z,1005.29
2018-06-29T07:47:38.701Z,1005.31
2018-06-29T07:48:38.724Z,1005.3
2018-06-29T07:49:38.750Z,1005.31
2018-06-29T07:50:38.776Z,1005.25
2018-06-29T07:51:38.796Z,1005.25
2018-06-29T07:52:38.818Z,1005.23
2018-06-29T07:53:38.847Z,1005.29
2018-06-29T07:54:38.869Z,1005.25
2018-06-29T07:55:38.893Z,1005.19
2018-06-29T07:56:38.916Z,1005.18
2018-06-29T07:57:38.941Z,1005.14
2018-06-29T07:58:39.087Z,1005.16
2018-06-29T07:59:38.990Z,1005.15
2018-06-29T08:00:39.012Z,1005.17
2018-06-29T08:01:39.037Z,1005.13
2018-06-29T08:02:39.075Z,1005.14
2018-06-29T08:03:39.085Z,1005.14
2018-06-29T08:04:39.110Z,1005.11
2018-06-29T08:05:39.136Z,1005.12
2018-06-29T08:06:39.159Z,1005.11
2018-06-29T08:07:39.182Z,1005.05
2018-06-29T08:08:39.207Z,1005.1
2018-06-29T08:09:39.231Z,1005.12
2018-06-29T08:10:39.282Z,1005.12
2018-06-29T08:11:39.280Z,1005.13
2018-06-29T08:12:39.303Z,1005.08
2018-06-29T08:13:39.330Z,1005.11
2018-06-29T08:14:39.353Z,1005.06
2018-06-29T08:15:39.378Z,1005.06
2018-06-29T08:16:39.403Z,1005.04
2018-06-29T08:17:39.428Z,1005.03
2018-06-29T08:18:39.452Z,1005.07
2018-06-29T08:19:39.477Z,1005.07
2018-06-29T08:20:39.501Z,1005.05
2018-06-29T08:21:39.528Z,1005.08
2018-06-29T08:22:39.551Z,1005.07
2018-06-29T08:23:39.575Z,1005.07
2018-06-29T08:24:39.601Z,1005.06
2018-06-29T08:25:39.625Z,1005.08
2018-06-29T08:26:39.650Z,1005.07
2018-06-29T08:27:39.679Z,1005.06
2018-06-29T08:28:39.706Z,1005.07
2018-06-29T08:29:39.727Z,1005.05
2018-06-29T08:30:39.749Z,1005.01
2018-06-29T08:31:39.779Z,1005.08
2018-06-29T08:32:39.799Z,1005.06
2018-06-29T08:33:39.824Z,1005.02
2018-06-29T08:34:39.854Z,1004.99
2018-06-29T08:35:39.881Z,1004.96
2018-06-29T08:36:39.908Z,1004.98
2018-06-29T08:37:39.926Z,1004.96
2018-06-29T08:38:40.027Z,1004.93
2018-06-29T08:39:39.977Z,1004.92
2018-06-29T08:40:40.002Z,1004.94
2018-06-29T08:41:40.028Z,1004.96
2018-06-29T08:42:40.053Z,1004.96
2018-06-29T08:43:40.079Z,1004.95
2018-06-29T08:44:40.105Z,1004.91
2018-06-29T08:45:40.130Z,1004.93
2018-06-29T08:46:40.184Z,1004.99
2018-06-29T08:47:40.182Z,1004.92
2018-06-29T08:48:40.209Z,1004.96
2018-06-29T08:49:40.259Z,1004.94
2018-06-29T08:50:40.258Z,1004.93
2018-06-29T08:51:40.283Z,1004.94
2018-06-29T08:52:40.309Z,1004.94
2018-06-29T08:53:40.339Z,1004.98
2018-06-29T08:54:40.363Z,1004.98
2018-06-29T08:55:40.387Z,1004.98
2018-06-29T08:56:40.420Z,1005
2018-06-29T08:57:40.440Z,1004.96
2018-06-29T08:58:40.468Z,1004.99
2018-06-29T08:59:40.491Z,1004.98
2018-06-29T09:00:40.524Z,1004.97
2018-06-29T09:01:40.546Z,1004.95
2018-06-29T09:02:40.570Z,1004.96
2018-06-29T09:03:40.596Z,1004.97
2018-06-29T09:04:40.623Z,1004.99
2018-06-29T09:05:40.650Z,1004.98
2018-06-29T09:06:40.677Z,1004.95
2018-06-29T09:07:40.703Z,1004.92
2018-06-29T09:08:40.730Z,1004.92
2018-06-29T09:09:40.755Z,1004.91
2018-06-29T09:10:40.783Z,1004.92
2018-06-29T09:11:40.810Z,1004.86
2018-06-29T09:12:40.840Z,1004.82
2018-06-29T09:13:40.863Z,1004.82
2018-06-29T09:14:40.889Z,1004.8
2018-06-29T09:15:40.916Z,1004.84
2018-06-29T09:16:40.946Z,1004.85
2018-06-29T09:17:40.971Z,1004.86
2018-06-29T09:18:40.999Z,1004.87
2018-06-29T09:19:41.026Z,1004.86
2018-06-29T09:20:41.051Z,1004.8
2018-06-29T09:21:41.079Z,1004.76
2018-06-29T09:22:41.105Z,1004.81
2018-06-29T09:23:41.140Z,1004.77
2018-06-29T09:24:41.161Z,1004.72
2018-06-29T09:25:41.190Z,1004.69
2018-06-29T09:26:41.216Z,1004.73
2018-06-29T09:27:41.292Z,1004.75
2018-06-29T09:28:41.273Z,1004.83
2018-06-29T09:29:41.297Z,1004.79
2018-06-29T09:30:41.325Z,1004.74
2018-06-29T09:31:41.352Z,1004.77
2018-06-29T09:32:41.430Z,1004.77
2018-06-29T09:33:41.407Z,1004.72
2018-06-29T09:34:41.436Z,1004.76
2018-06-29T09:35:41.462Z,1004.74
2018-06-29T09:36:41.490Z,1004.7
2018-06-29T09:37:41.519Z,1004.73
2018-06-29T09:38:41.545Z,1004.69
2018-06-29T09:39:41.572Z,1004.69
2018-06-29T09:40:41.601Z,1004.75
2018-06-29T09:41:41.629Z,1004.7
2018-06-29T09:42:41.658Z,1004.7
2018-06-29T09:43:41.686Z,1004.72
2018-06-29T09:44:41.715Z,1004.71
2018-06-29T09:45:41.745Z,1004.65
2018-06-29T09:46:41.773Z,1004.64
2018-06-29T09:47:41.829Z,1004.62
2018-06-29T09:48:41.828Z,1004.57
2018-06-29T09:49:41.855Z,1004.57
2018-06-29T09:50:41.884Z,1004.5
2018-06-29T09:51:41.912Z,1004.53
2018-06-29T09:52:41.941Z,1004.47
2018-06-29T09:53:41.969Z,1004.47
2018-06-29T09:54:41.998Z,1004.55
2018-06-29T09:55:42.026Z,1004.5
2018-06-29T09:56:42.057Z,1004.5
2018-06-29T09:57:42.083Z,1004.55
2018-06-29T09:58:42.111Z,1004.5
2018-06-29T09:59:42.140Z,1004.5
2018-06-29T10:00:42.213Z,1004.5
2018-06-29T10:01:42.198Z,1004.54
2018-06-29T10:02:42.228Z,1004.52
2018-06-29T10:03:42.258Z,1004.5
2018-06-29T10:04:42.284Z,1004.49
2018-06-29T10:05:42.314Z,1004.47
2018-06-29T10:06:42.344Z,1004.52
2018-06-29T10:07:42.373Z,1004.46
2018-06-29T10:08:42.401Z,1004.5
2018-06-29T10:09:42.431Z,1004.49
2018-06-29T10:10:42.462Z,1004.51
2018-06-29T10:11:42.489Z,1004.53
2018-06-29T10:12:42.518Z,1004.49
2018-06-29T10:13:42.548Z,1004.49
2018-06-29T10:14:42.580Z,1004.46
2018-06-29T10:15:42.607Z,1004.47
2018-06-29T10:16:42.637Z,1004.33
2018-06-29T10:17:42.667Z,1004.48
2018-06-29T10:18:42.696Z,1004.43
2018-06-29T10:19:42.875Z,1004.4
2018-06-29T10:20:42.756Z,1004.4
2018-06-29T10:21:42.791Z,1004.38
2018-06-29T10:22:42.816Z,1004.37
2018-06-29T10:23:42.846Z,1004.33
2018-06-29T10:24:42.875Z,1004.37
2018-06-29T10:25:42.907Z,1004.35
2018-06-29T10:26:42.934Z,1004.36
2018-06-29T10:27:42.964Z,1004.34
2018-06-29T10:28:42.998Z,1004.35
2018-06-29T10:29:43.026Z,1004.32
2018-06-29T10:30:43.107Z,1004.33
2018-06-29T10:31:43.086Z,1004.4
2018-06-29T10:32:43.115Z,1004.35
2018-06-29T10:33:43.145Z,1004.34
2018-06-29T10:34:43.179Z,1004.25
2018-06-29T10:35:43.206Z,1004.18
2018-06-29T10:36:43.263Z,1004.2
2018-06-29T10:37:43.268Z,1004.26
2018-06-29T10:38:43.346Z,1004.26
2018-06-29T10:39:43.330Z,1004.28
2018-06-29T10:40:43.360Z,1004.25
2018-06-29T10:41:43.395Z,1004.25
2018-06-29T10:42:43.421Z,1004.23
2018-06-29T10:43:43.452Z,1004.27
2018-06-29T10:44:43.555Z,1004.24
2018-06-29T10:45:43.518Z,1004.25
2018-06-29T10:46:43.545Z,1004.23
2018-06-29T10:47:43.576Z,1004.19
2018-06-29T10:48:43.606Z,1004.15
2018-06-29T10:49:43.638Z,1004.2
2018-06-29T10:50:43.671Z,1004.19
2018-06-29T10:51:43.702Z,1004.19
2018-06-29T10:52:43.792Z,1004.22
2018-06-29T10:53:43.763Z,1004.2
2018-06-29T10:54:43.795Z,1004.24
2018-06-29T10:55:43.826Z,1004.24
2018-06-29T10:56:43.857Z,1004.21
2018-06-29T10:57:43.889Z,1004.22
2018-06-29T10:58:44.008Z,1004.21
2018-06-29T10:59:43.950Z,1004.16
2018-06-29T11:00:43.981Z,1004.13
2018-06-29T11:01:44.013Z,1004.12
2018-06-29T11:02:44.051Z,1004.09
2018-06-29T11:03:44.077Z,1004.07
2018-06-29T11:04:44.110Z,1004.07
2018-06-29T11:05:44.155Z,1004.06
2018-06-29T11:06:44.173Z,1004.05
2018-06-29T11:07:44.206Z,1003.97
2018-06-29T11:08:44.245Z,1003.98
2018-06-29T11:09:44.285Z,1003.99
2018-06-29T11:10:44.303Z,1003.95
2018-06-29T11:11:44.346Z,1003.91
2018-06-29T11:12:44.366Z,1003.95
2018-06-29T11:13:44.397Z,1003.93
2018-06-29T11:14:44.429Z,1004.01
2018-06-29T11:15:44.462Z,1003.97
2018-06-29T11:16:44.493Z,1003.98
2018-06-29T11:17:44.527Z,1004
2018-06-29T11:18:44.558Z,1003.97
2018-06-29T11:19:44.592Z,1003.98
2018-06-29T11:20:44.624Z,1003.93
2018-06-29T11:21:44.661Z,1003.9
2018-06-29T11:22:44.690Z,1003.95
2018-06-29T11:23:44.722Z,1003.85
2018-06-29T11:24:44.755Z,1003.93
2018-06-29T11:25:44.786Z,1003.97
2018-06-29T11:26:44.821Z,1003.93
2018-06-29T11:27:44.854Z,1003.9
2018-06-29T11:28:44.885Z,1003.89
2018-06-29T11:29:44.918Z,1003.86
2018-06-29T11:30:44.952Z,1003.86
2018-06-29T11:31:44.984Z,1003.86
2018-06-29T11:32:45.020Z,1003.85
2018-06-29T11:33:45.053Z,1003.81
2018-06-29T11:34:45.088Z,1003.79
2018-06-29T11:35:45.117Z,1003.74
2018-06-29T11:36:45.154Z,1003.73
2018-06-29T11:37:45.184Z,1003.79
2018-06-29T11:38:45.217Z,1003.78
2018-06-29T11:39:45.256Z,1003.75
2018-06-29T11:40:45.284Z,1003.72
2018-06-29T11:41:45.317Z,1003.69
2018-06-29T11:42:45.351Z,1003.75
2018-06-29T11:43:45.385Z,1003.71
2018-06-29T11:44:45.418Z,1003.71
2018-06-29T11:45:45.453Z,1003.73
2018-06-29T11:46:45.489Z,1003.83
2018-06-29T11:47:45.519Z,1003.78
2018-06-29T11:48:45.631Z,1003.76
2018-06-29T11:49:45.587Z,1003.81
2018-06-29T11:50:45.621Z,1003.76
2018-06-29T11:51:45.654Z,1003.71
2018-06-29T11:52:45.688Z,1003.71
2018-06-29T11:53:45.723Z,1003.65
2018-06-29T11:54:45.757Z,1003.68
2018-06-29T11:55:45.790Z,1003.63
2018-06-29T11:56:45.827Z,1003.63
2018-06-29T11:57:45.858Z,1003.54
2018-06-29T11:58:45.893Z,1003.59
2018-06-29T11:59:45.928Z,1003.61
2018-06-29T12:00:46.041Z,1003.62
2018-06-29T12:01:45.997Z,1003.55
2018-06-29T12:02:46.031Z,1003.57
2018-06-29T12:03:46.067Z,1003.53
2018-06-29T12:04:46.099Z,1003.52
2018-06-29T12:05:46.134Z,1003.47
2018-06-29T12:06:46.170Z,1003.48
2018-06-29T12:07:46.206Z,1003.43
2018-06-29T12:08:46.239Z,1003.45